Heat Index SAI AWOS Graphical Display Untitled Document
Bertrand Chaffee Hospital Heliport (2NK6) Springville, New York, USA
320
19:05
27/03/2015
06
14
280V010
29.82
N/A
1420
28(F), -2(C)
23(F), -5(C)
21 F
83%
BKN012 OVC019
3
-SN
0"
N/A
19:05 zulu Wind 320 at 06 Knots, Gusting 14 Knots, Altimeter 29.82
METAR K2NK6 271905Z AUTO 32006G14KT 280V010 3SM -SN BKN012 OVC019 M02/M05 A2982 A02 P0000
METAR:
FAA Disclaimer--Advisory Use ONLY, not for flight info--
INFO:
Wind Direction:
Wind Speed:
Wind Gust:
Wind Variable:
Altimeter:
Dens Alt:
Elev:
Temp:
Dwpt:
Wind Chill
Rel Humidity:
Ceiling:
Visibility:
Prsnt Wea:
PCPN:
Remarks:
How to read the WebPage